Airfield :







YOU CAN JOIN US ON...

 
LOGIN :

Register | Disclaimer

   EN    FR    IT 

 









Legend :    VFR   Marginal VFR   IFR   Intensive IFR   Very Intensive IFR
Visi :
Ceiling :
>= 8 km
>= 3000ft
5 to 8 km
1000 to 3000 ft
1500m to 5 km
500 to 1000 ft
800 to 1500m
200 to 500 ft
< 800m
< 200 ft
Symbols :   Thunderstorms  Fog  Heavy snow  Heavy precipitations  Wind > 20 kt






- Airport Elevation : 118 ft
- IATA code : YUL


CYUL - Montréal - Pierre-Elliott-Trudeau Int.

CURRENT METAR :
  • 170228Z 24014KT 15SM -SN OVC030 00/M04 A2997 RMK SC8 SLP150

EXPIRED METARs :
  • 170200Z 23016G21KT 15SM VCSH SCT040 BKN080 00/M05 A2995 RMK SC4AC2 SHWR W-NW SLP146
  • 170100Z 22012KT 15SM BKN083 M00/M05 A2995 RMK AC5 SLP144
  • 170000Z 23014KT 15SM FEW075 01/M05 A2995 RMK AC2 SLP145

TAF TAF CYUL
Valid from the 17 at 03:00 until the 18 at 00:00 UTC


170238Z 1703/1724 23015G25KT P6SM SCT040 BKN080
TEMPO 1703/1706 3SM -SHSN OVC040
PROB30 1703/1706 2SM -SHSN OVC015
FM170600 28012KT P6SM BKN060
FM170800 29010KT P6SM FEW060
FM172000 26010KT P6SM SKC RMK NXT FCST BY 170600Z
ATIS : ENG : +1 514-633-3037 FRA : +1 514-633-3034



MET'MAP, your aeronautical weather chart ! - Copyright ORBIFLY December 2007 - Disclaimer

ORBIFLY MET'MAP TEAM :

Programming & Development : Alexandra Zaïnal
Concept & original design : Baudouin d'Aumeries
Assistance for programming : Marc-Olivier Méhu
Technical & hardware support : Manuel Goepfert

Contact : metmap@orbifly.com




SOURCES & CREDITS :

   NOAA